Terminal Aerodrome Forecast
Issued by NWS

Home | Current Version | Previous Version | Text Only | Print | Product List | Glossary On
Versions: 1 2 3 4 5 6 7 8 9 10 11 12 13 14
543
FTUS42 TJSJ 290540
TAFJSJ
TAF
TJSJ 290540Z 2906/3006 11005KT P6SM -SHRA VCTS SCT025CB BKN040
      TEMPO 2906/2908 4SM SHRA SCT020 BKN035
     FM291300 08012KT P6SM VCTS SCT030CB BKN050
     FM292300 11005KT P6SM SCT060=

USA.gov is the U.S. government's official web portal to all federal, state and local government web resources and services.